createdAt,value
2019-02-26T00:00:20.048Z,55.09
2019-02-26T00:02:52.614Z,55.17
2019-02-26T00:05:21.550Z,55.55
2019-02-26T00:07:51.571Z,55.62
2019-02-26T00:10:24.790Z,55.81
2019-02-26T00:12:50.209Z,55.47
2019-02-26T00:15:18.789Z,55.61
2019-02-26T00:17:49.042Z,55.99
2019-02-26T00:20:17.737Z,56.49
2019-02-26T00:22:46.443Z,56.32
2019-02-26T00:25:16.166Z,56.79
2019-02-26T00:27:47.113Z,57.18
2019-02-26T00:30:16.637Z,57.36
2019-02-26T00:32:45.945Z,57.47
2019-02-26T00:35:16.070Z,58.08
2019-02-26T00:37:46.534Z,58.10
2019-02-26T00:40:17.167Z,58.57
2019-02-26T00:42:45.466Z,58.03
2019-02-26T00:45:14.531Z,58.34
2019-02-26T00:47:46.135Z,59.14
2019-02-26T00:50:16.691Z,58.68
2019-02-26T00:52:45.202Z,58.71
2019-02-26T00:55:13.775Z,59.37
2019-02-26T00:57:43.010Z,59.10
2019-02-26T01:00:14.546Z,59.59
2019-02-26T01:02:43.113Z,59.16
2019-02-26T01:05:13.138Z,59.73
2019-02-26T01:07:44.934Z,60.26
2019-02-26T01:10:14.004Z,60.07
2019-02-26T01:12:43.401Z,59.71
2019-02-26T01:15:16.887Z,59.93
2019-02-26T01:17:45.635Z,60.01
2019-02-26T01:20:16.341Z,60.23
2019-02-26T01:22:45.660Z,60.23
2019-02-26T01:25:15.962Z,60.27
2019-02-26T01:27:47.612Z,60.17
2019-02-26T01:30:23.441Z,60.50
2019-02-26T01:32:49.071Z,61.55
2019-02-26T01:35:17.965Z,61.87
2019-02-26T01:37:46.817Z,61.50
2019-02-26T01:40:19.316Z,61.47
2019-02-26T01:42:49.852Z,60.99
2019-02-26T01:45:19.408Z,61.58
2019-02-26T01:47:48.797Z,61.86
2019-02-26T01:50:18.323Z,61.50
2019-02-26T01:52:47.197Z,61.74
2019-02-26T01:55:18.168Z,61.93
2019-02-26T01:57:46.667Z,62.19
2019-02-26T02:00:18.125Z,62.27
2019-02-26T02:02:47.098Z,62.37
2019-02-26T02:05:15.967Z,62.37
2019-02-26T02:07:47.183Z,62.33
2019-02-26T02:10:16.435Z,62.43
2019-02-26T02:12:45.291Z,62.67
2019-02-26T02:15:20.792Z,62.83
2019-02-26T02:17:46.523Z,63.36
2019-02-26T02:20:19.419Z,63.47
2019-02-26T02:22:47.027Z,63.45
2019-02-26T02:25:15.913Z,63.47
2019-02-26T02:27:47.654Z,63.54
2019-02-26T02:30:22.547Z,63.89
2019-02-26T02:32:51.280Z,64.05
2019-02-26T02:35:19.259Z,64.27
2019-02-26T02:37:50.805Z,64.39
2019-02-26T02:40:19.325Z,64.70
2019-02-26T02:42:49.129Z,64.74
2019-02-26T02:45:20.999Z,65.27
2019-02-26T02:47:54.825Z,65.19
2019-02-26T02:50:19.656Z,65.41
2019-02-26T02:52:50.575Z,65.56
2019-02-26T02:55:19.442Z,65.54
2019-02-26T02:57:50.169Z,65.68
2019-02-26T03:00:21.256Z,65.64
2019-02-26T03:02:52.292Z,65.71
2019-02-26T03:05:20.189Z,66.15
2019-02-26T03:07:51.651Z,66.32
2019-02-26T03:10:19.691Z,66.49
2019-02-26T03:12:52.190Z,66.50
2019-02-26T03:15:21.169Z,66.91
2019-02-26T03:17:49.757Z,66.96
2019-02-26T03:20:18.611Z,67.22
2019-02-26T03:22:49.189Z,67.72
2019-02-26T03:25:21.019Z,67.56
2019-02-26T03:27:49.069Z,67.88
2019-02-26T03:30:32.181Z,68.07
2019-02-26T03:33:00.207Z,68.10
2019-02-26T03:35:25.401Z,67.99
2019-02-26T03:37:57.738Z,68.21
2019-02-26T03:40:27.049Z,68.07
2019-02-26T03:42:55.510Z,67.92
2019-02-26T03:45:25.255Z,68.33
2019-02-26T03:47:55.374Z,68.19
2019-02-26T03:50:27.055Z,68.21
2019-02-26T03:52:55.431Z,68.34
2019-02-26T03:55:24.283Z,68.58
2019-02-26T03:57:56.414Z,68.48
2019-02-26T04:00:23.812Z,68.72
2019-02-26T04:02:52.753Z,68.68
2019-02-26T04:05:21.619Z,68.96
2019-02-26T04:07:53.287Z,69.21
2019-02-26T04:10:21.560Z,69.06
2019-02-26T04:12:52.141Z,69.04
2019-02-26T04:15:24.310Z,69.36
2019-02-26T04:17:51.629Z,69.41
2019-02-26T04:20:20.525Z,69.39
2019-02-26T04:22:52.391Z,69.41
2019-02-26T04:25:43.906Z,69.20
2019-02-26T04:28:19.051Z,69.16
2019-02-26T04:30:59.662Z,69.39
2019-02-26T04:33:55.897Z,69.62
2019-02-26T04:36:28.135Z,69.65
2019-02-26T04:39:36.860Z,69.68
2019-02-26T04:42:17.731Z,69.81
2019-02-26T04:45:09.136Z,69.89
2019-02-26T04:47:58.317Z,69.97
2019-02-26T04:50:29.552Z,70.21
2019-02-26T04:52:59.735Z,70.26
2019-02-26T04:55:29.727Z,70.40
2019-02-26T04:57:59.136Z,70.45
2019-02-26T05:00:30.382Z,70.40
2019-02-26T05:02:58.589Z,70.63
2019-02-26T05:05:31.022Z,70.52
2019-02-26T05:07:58.081Z,70.64
2019-02-26T05:10:28.972Z,70.74
2019-02-26T05:13:00.225Z,70.61
2019-02-26T05:15:32.492Z,70.44
2019-02-26T05:17:58.768Z,70.53
2019-02-26T05:20:27.659Z,70.77
2019-02-26T05:22:58.408Z,70.57
2019-02-26T05:25:27.130Z,70.63
2019-02-26T05:27:55.990Z,70.68
2019-02-26T05:30:24.887Z,70.78
2019-02-26T05:32:57.047Z,70.58
2019-02-26T05:35:25.280Z,70.66
2019-02-26T05:37:57.533Z,70.89
2019-02-26T05:40:24.920Z,70.97
2019-02-26T05:42:55.903Z,71.14
2019-02-26T05:45:26.333Z,71.27
2019-02-26T05:47:58.695Z,71.45
2019-02-26T05:50:25.612Z,71.30
2019-02-26T05:52:58.007Z,71.31
2019-02-26T05:55:25.637Z,71.64
2019-02-26T05:57:55.707Z,71.70
2019-02-26T06:00:28.385Z,71.82
2019-02-26T06:02:55.174Z,72.06
2019-02-26T06:05:25.957Z,71.83
2019-02-26T06:07:54.668Z,71.78
2019-02-26T06:10:24.655Z,71.89
2019-02-26T06:12:54.121Z,71.90
2019-02-26T06:15:25.628Z,71.84
2019-02-26T06:17:55.835Z,72.11
2019-02-26T06:20:28.123Z,72.46
2019-02-26T06:22:54.794Z,72.63
2019-02-26T06:25:24.491Z,72.74
2019-02-26T06:27:53.530Z,72.18
2019-02-26T06:30:22.402Z,71.98
2019-02-26T06:32:51.312Z,72.25
2019-02-26T06:35:20.198Z,71.84
2019-02-26T06:37:49.050Z,72.78
2019-02-26T06:40:18.192Z,71.69
2019-02-26T06:42:47.066Z,71.95
2019-02-26T06:45:16.807Z,71.87
2019-02-26T06:47:48.454Z,72.07
2019-02-26T06:50:18.868Z,71.63
2019-02-26T06:52:48.613Z,71.84
2019-02-26T06:55:17.683Z,71.75
2019-02-26T06:57:49.684Z,71.78
2019-02-26T07:00:21.274Z,71.93
2019-02-26T07:02:49.248Z,71.63
2019-02-26T07:05:18.114Z,71.62
2019-02-26T07:07:46.980Z,71.66
2019-02-26T07:10:19.013Z,71.61
2019-02-26T07:12:48.730Z,71.43
2019-02-26T07:15:17.448Z,71.59
2019-02-26T07:17:46.435Z,71.44
2019-02-26T07:20:15.365Z,71.52
2019-02-26T07:22:46.792Z,71.46
2019-02-26T07:25:16.613Z,71.53
2019-02-26T07:27:45.454Z,71.34
2019-02-26T07:30:14.328Z,71.42
2019-02-26T07:32:45.663Z,71.55
2019-02-26T07:35:16.612Z,71.26
2019-02-26T07:37:44.408Z,71.20
2019-02-26T07:40:15.848Z,71.58
2019-02-26T07:42:46.758Z,71.27
2019-02-26T07:45:17.809Z,71.12
2019-02-26T07:47:45.414Z,70.84
2019-02-26T07:50:15.720Z,70.36
2019-02-26T07:52:44.958Z,70.38
2019-02-26T07:55:15.331Z,70.09
2019-02-26T07:57:45.507Z,69.71
2019-02-26T08:00:18.092Z,69.78
2019-02-26T08:02:46.980Z,69.31
2019-02-26T08:05:17.087Z,69.56
2019-02-26T08:07:48.428Z,68.96
2019-02-26T08:10:19.577Z,68.77
2019-02-26T08:12:48.602Z,68.59
2019-02-26T08:15:17.593Z,68.70
2019-02-26T08:17:50.246Z,68.89
2019-02-26T08:20:17.178Z,68.26
2019-02-26T08:22:46.092Z,67.92
2019-02-26T08:25:15.048Z,67.68
2019-02-26T08:27:43.933Z,67.31
2019-02-26T08:30:17.844Z,67.31
2019-02-26T08:32:48.523Z,67.59
2019-02-26T08:35:18.828Z,67.59
2019-02-26T08:37:47.005Z,67.59
2019-02-26T08:40:16.125Z,67.62
2019-02-26T08:42:45.021Z,68.70
2019-02-26T08:45:17.786Z,68.70
2019-02-26T08:47:46.628Z,68.39
2019-02-26T08:50:15.863Z,68.41
2019-02-26T08:52:47.718Z,68.24
2019-02-26T08:55:18.415Z,68.02
2019-02-26T08:57:46.608Z,67.51
2019-02-26T09:00:22.079Z,67.09
2019-02-26T09:02:54.031Z,67.06
2019-02-26T09:05:23.985Z,67.13
2019-02-26T09:07:52.205Z,66.99
2019-02-26T09:10:23.248Z,66.77
2019-02-26T09:12:52.107Z,66.94
2019-02-26T09:15:22.079Z,66.80
2019-02-26T09:17:50.671Z,66.47
2019-02-26T09:20:20.379Z,65.55
2019-02-26T09:22:51.402Z,65.36
2019-02-26T09:25:21.084Z,64.67
2019-02-26T09:27:49.613Z,64.17
2019-02-26T09:30:19.439Z,64.87
2019-02-26T09:32:48.016Z,64.26
2019-02-26T09:35:25.358Z,64.13
2019-02-26T09:37:52.718Z,63.66
2019-02-26T09:40:23.712Z,63.74
2019-02-26T09:42:54.523Z,63.63
2019-02-26T09:45:30.026Z,64.58
2019-02-26T09:47:58.206Z,63.69
2019-02-26T09:50:27.029Z,63.89
2019-02-26T09:52:58.756Z,63.83
2019-02-26T09:55:25.889Z,63.58
2019-02-26T09:57:54.477Z,63.34
2019-02-26T10:00:26.929Z,63.51
2019-02-26T10:02:53.996Z,63.44
2019-02-26T10:05:22.592Z,63.39
2019-02-26T10:07:54.237Z,63.24
2019-02-26T10:10:22.719Z,62.54
2019-02-26T10:12:53.765Z,62.62
2019-02-26T10:15:21.577Z,62.89
2019-02-26T10:17:50.142Z,62.61
2019-02-26T10:20:27.885Z,63.11
2019-02-26T10:22:57.199Z,63.18
2019-02-26T10:25:26.410Z,62.94
2019-02-26T10:27:54.725Z,62.22
2019-02-26T10:30:23.389Z,62.17
2019-02-26T10:32:51.961Z,61.79
2019-02-26T10:35:32.546Z,61.77
2019-02-26T10:38:05.103Z,61.23
2019-02-26T10:40:35.525Z,60.98
2019-02-26T10:43:01.521Z,61.94
2019-02-26T10:45:36.027Z,61.93
2019-02-26T10:48:01.990Z,61.37
2019-02-26T10:50:31.906Z,61.13
2019-02-26T10:53:07.213Z,60.30
2019-02-26T10:55:38.138Z,61.11
2019-02-26T10:58:06.787Z,60.24
2019-02-26T11:00:34.734Z,61.04
2019-02-26T11:03:02.234Z,61.12
2019-02-26T11:05:30.975Z,60.24
2019-02-26T11:08:02.158Z,59.82
2019-02-26T11:10:29.871Z,59.59
2019-02-26T11:12:59.388Z,59.63
2019-02-26T11:15:31.111Z,60.17
2019-02-26T11:17:58.721Z,59.83
2019-02-26T11:20:30.487Z,59.67
2019-02-26T11:22:57.679Z,60.47
2019-02-26T11:25:27.439Z,60.90
2019-02-26T11:27:56.320Z,60.99
2019-02-26T11:30:29.359Z,60.37
2019-02-26T11:33:02.129Z,60.06
2019-02-26T11:35:27.540Z,60.04
2019-02-26T11:37:57.774Z,59.68
2019-02-26T11:40:28.061Z,59.84
2019-02-26T11:42:59.823Z,60.28
2019-02-26T11:45:27.749Z,60.15
2019-02-26T11:47:58.075Z,59.87
2019-02-26T11:50:28.136Z,59.80
2019-02-26T11:52:57.227Z,59.73
2019-02-26T11:55:28.621Z,59.73
2019-02-26T11:57:56.129Z,59.03
2019-02-26T12:00:31.312Z,58.03
2019-02-26T12:02:58.364Z,57.42
2019-02-26T12:05:31.420Z,58.11
2019-02-26T12:07:58.831Z,58.11
2019-02-26T12:10:29.676Z,58.85
2019-02-26T12:13:00.029Z,59.26
2019-02-26T12:15:30.238Z,59.29
2019-02-26T12:17:58.836Z,59.17
2019-02-26T12:20:27.524Z,59.17
2019-02-26T12:22:56.103Z,58.46
2019-02-26T12:25:24.669Z,58.87
2019-02-26T12:27:53.276Z,59.48
2019-02-26T12:30:23.171Z,59.48
2019-02-26T12:32:53.112Z,59.37
2019-02-26T12:35:22.092Z,59.78
2019-02-26T12:37:52.764Z,58.68
2019-02-26T12:40:23.347Z,58.97
2019-02-26T12:42:51.306Z,58.97
2019-02-26T12:45:22.006Z,59.75
2019-02-26T12:47:53.890Z,59.90
2019-02-26T12:50:26.136Z,59.93
2019-02-26T12:52:53.847Z,59.87
2019-02-26T12:57:56.497Z,59.08
2019-02-26T13:00:24.922Z,59.34
2019-02-26T13:02:53.472Z,59.35
2019-02-26T13:05:22.915Z,58.62
2019-02-26T13:07:51.883Z,58.85
2019-02-26T13:10:24.632Z,59.28
2019-02-26T13:12:59.010Z,59.75
2019-02-26T13:15:23.818Z,59.91
2019-02-26T13:17:54.397Z,59.76
2019-02-26T13:20:26.776Z,60.01
2019-02-26T13:23:00.569Z,60.83
2019-02-26T13:25:26.769Z,60.98
2019-02-26T13:27:55.627Z,61.44
2019-02-26T13:30:25.440Z,61.24
2019-02-26T13:32:58.088Z,60.61
2019-02-26T13:35:26.353Z,60.62
2019-02-26T13:37:59.538Z,61.15
2019-02-26T13:40:28.158Z,61.60
2019-02-26T13:45:28.205Z,62.09
2019-02-26T13:48:01.123Z,62.01
2019-02-26T13:50:32.263Z,61.94
2019-02-26T13:53:00.847Z,62.79
2019-02-26T13:55:29.430Z,62.93
2019-02-26T13:57:58.039Z,62.55
2019-02-26T14:00:27.161Z,62.36
2019-02-26T14:02:55.849Z,62.46
2019-02-26T14:05:25.072Z,62.39
2019-02-26T14:07:53.702Z,62.81
2019-02-26T14:10:26.092Z,62.79
2019-02-26T14:12:54.664Z,63.22
2019-02-26T14:15:26.719Z,62.97
2019-02-26T14:17:55.637Z,63.41
2019-02-26T14:20:24.204Z,63.90
2019-02-26T14:22:52.833Z,64.01
2019-02-26T14:25:21.401Z,64.48
2019-02-26T14:27:49.969Z,64.49
2019-02-26T14:30:22.270Z,64.00
2019-02-26T14:32:50.880Z,63.86
2019-02-26T14:35:19.610Z,63.69
2019-02-26T14:37:48.206Z,64.15
2019-02-26T14:40:39.247Z,64.15
2019-02-26T14:43:07.853Z,63.99
2019-02-26T14:45:36.427Z,63.95
2019-02-26T14:48:05.026Z,63.83
2019-02-26T14:50:33.604Z,63.69
2019-02-26T14:53:02.167Z,64.01
2019-02-26T14:55:30.783Z,63.90
2019-02-26T14:57:59.380Z,64.08
2019-02-26T15:00:29.319Z,64.42
2019-02-26T15:02:57.983Z,64.51
2019-02-26T15:05:26.650Z,64.88
2019-02-26T15:07:55.308Z,65.19
2019-02-26T15:10:23.888Z,65.12
2019-02-26T15:12:52.537Z,65.21
2019-02-26T15:15:21.198Z,64.96
2019-02-26T15:17:49.854Z,65.53
2019-02-26T15:20:22.304Z,65.38
2019-02-26T15:22:50.929Z,65.78
2019-02-26T15:25:27.807Z,66.01
2019-02-26T15:28:04.607Z,66.28
2019-02-26T15:30:27.048Z,66.57
2019-02-26T15:32:55.607Z,66.34
2019-02-26T15:35:24.487Z,66.61
2019-02-26T15:37:53.102Z,66.74
2019-02-26T15:40:22.325Z,66.41
2019-02-26T15:42:53.046Z,66.11
2019-02-26T15:45:28.965Z,66.27
2019-02-26T15:47:56.482Z,66.57
2019-02-26T15:50:25.062Z,66.29
2019-02-26T15:52:53.773Z,66.23
2019-02-26T15:55:28.207Z,65.93
2019-02-26T15:57:56.441Z,66.70
2019-02-26T16:00:25.573Z,66.70
2019-02-26T16:02:58.950Z,66.35
2019-02-26T16:05:30.842Z,66.28
2019-02-26T16:07:59.420Z,66.55
2019-02-26T16:10:27.980Z,66.40
2019-02-26T16:12:58.233Z,66.07
2019-02-26T16:15:26.811Z,66.26
2019-02-26T16:18:51.325Z,66.35
2019-02-26T16:21:19.894Z,66.92
2019-02-26T16:23:48.458Z,66.76
2019-02-26T16:26:17.059Z,67.26
2019-02-26T16:28:45.643Z,67.21
2019-02-26T16:34:46.402Z,67.76
2019-02-26T16:37:15.003Z,67.76
2019-02-26T16:39:43.803Z,68.51
2019-02-26T16:42:12.393Z,68.51
2019-02-26T16:44:41.019Z,68.55
2019-02-26T16:47:09.655Z,69.22
2019-02-26T16:49:38.177Z,69.26
2019-02-26T16:52:07.075Z,69.78
2019-02-26T16:54:35.663Z,69.73
2019-02-26T16:57:04.306Z,69.57
2019-02-26T16:59:32.912Z,69.89
2019-02-26T17:02:01.925Z,69.89
2019-02-26T17:04:30.958Z,69.59
2019-02-26T17:06:59.544Z,69.95
2019-02-26T17:09:28.193Z,70.11
2019-02-26T17:11:56.747Z,70.44
2019-02-26T17:14:25.396Z,71.27
2019-02-26T17:16:53.957Z,71.27
2019-02-26T17:19:22.597Z,71.55
2019-02-26T17:21:51.168Z,71.57
2019-02-26T17:24:20.616Z,71.57
2019-02-26T17:26:49.901Z,71.82
2019-02-26T17:29:19.768Z,71.82
2019-02-26T17:31:48.461Z,71.93
2019-02-26T17:34:17.713Z,72.16
2019-02-26T17:36:49.027Z,72.16
2019-02-26T17:39:17.595Z,72.30
2019-02-26T17:41:46.171Z,72.19
2019-02-26T17:44:14.780Z,72.52
2019-02-26T17:46:43.401Z,72.52
2019-02-26T17:49:11.988Z,72.41
2019-02-26T17:51:40.581Z,72.52
2019-02-26T17:54:09.213Z,72.96
2019-02-26T17:56:37.829Z,73.05
2019-02-26T17:59:06.441Z,73.52
2019-02-26T18:01:35.019Z,74.00
2019-02-26T18:04:03.692Z,74.00
2019-02-26T18:06:32.315Z,74.49
2019-02-26T18:09:00.875Z,74.92
2019-02-26T18:11:29.501Z,75.26
2019-02-26T18:14:00.202Z,76.04
2019-02-26T18:16:28.401Z,76.04
2019-02-26T18:18:56.997Z,76.45
2019-02-26T18:21:25.590Z,76.56
2019-02-26T18:23:54.182Z,76.78
2019-02-26T18:26:22.751Z,76.34
2019-02-26T18:28:53.234Z,76.66
2019-02-26T18:31:26.380Z,77.46
2019-02-26T18:33:52.172Z,77.46
2019-02-26T18:36:20.791Z,77.48
2019-02-26T18:38:49.440Z,77.74
2019-02-26T18:41:18.020Z,77.58
2019-02-26T18:43:47.533Z,78.46
2019-02-26T18:46:16.617Z,78.28
2019-02-26T18:48:48.358Z,78.14
2019-02-26T18:51:17.818Z,78.88
2019-02-26T18:53:47.103Z,78.42
2019-02-26T18:56:16.266Z,78.65
2019-02-26T18:58:46.628Z,78.53
2019-02-26T19:01:16.831Z,78.93
2019-02-26T19:03:45.412Z,79.31
2019-02-26T19:06:13.974Z,79.64
2019-02-26T19:08:42.577Z,80.02
2019-02-26T19:11:16.656Z,80.37
2019-02-26T19:13:43.618Z,80.88
2019-02-26T19:16:16.178Z,80.78
2019-02-26T19:18:44.754Z,81.03
2019-02-26T19:21:14.873Z,80.82
2019-02-26T19:23:43.519Z,81.34
2019-02-26T19:26:13.737Z,80.98
2019-02-26T19:28:42.422Z,80.99
2019-02-26T19:31:11.034Z,81.30
2019-02-26T19:33:39.613Z,81.72
2019-02-26T19:36:10.651Z,81.78
2019-02-26T19:38:38.545Z,81.67
2019-02-26T19:41:14.879Z,81.83
2019-02-26T19:43:43.468Z,82.21
2019-02-26T19:46:12.093Z,81.56
2019-02-26T19:48:40.721Z,81.45
2019-02-26T19:51:09.359Z,81.69
2019-02-26T19:53:43.004Z,82.17
2019-02-26T19:56:11.596Z,82.46
2019-02-26T19:58:40.978Z,82.38
2019-02-26T20:01:10.145Z,83.15
2019-02-26T20:03:46.215Z,83.84
2019-02-26T20:06:14.862Z,84.23
2019-02-26T20:08:45.081Z,84.63
2019-02-26T20:11:13.689Z,84.32
2019-02-26T20:13:42.374Z,84.74
2019-02-26T20:16:13.339Z,84.96
2019-02-26T20:18:41.933Z,84.49
2019-02-26T20:21:10.514Z,83.57
2019-02-26T20:23:42.089Z,83.45
2019-02-26T20:26:16.064Z,84.20
2019-02-26T20:28:43.136Z,84.89
2019-02-26T20:31:11.743Z,85.31
2019-02-26T20:33:40.315Z,86.19
2019-02-26T20:36:09.900Z,85.06
2019-02-26T20:38:38.633Z,84.39
2019-02-26T20:41:07.306Z,85.06
2019-02-26T20:43:36.944Z,85.92
2019-02-26T20:46:06.015Z,85.72
2019-02-26T20:48:36.697Z,86.23
2019-02-26T20:51:04.962Z,86.82
2019-02-26T20:53:33.543Z,86.42
2019-02-26T20:56:05.210Z,86.33
2019-02-26T20:58:37.111Z,85.62
2019-02-26T21:01:07.263Z,85.73
2019-02-26T21:03:35.894Z,86.19
2019-02-26T21:06:04.463Z,86.27
2019-02-26T21:08:34.034Z,86.65
2019-02-26T21:11:02.629Z,87.64
2019-02-26T21:13:34.663Z,88.05
2019-02-26T21:16:01.871Z,87.87
2019-02-26T21:18:31.245Z,87.04
2019-02-26T21:21:00.218Z,87.10
2019-02-26T21:27:01.179Z,87.73
2019-02-26T21:29:30.326Z,87.82
2019-02-26T21:31:59.275Z,87.71
2019-02-26T21:34:29.306Z,87.96
2019-02-26T21:37:00.080Z,88.36
2019-02-26T21:39:29.584Z,88.24
2019-02-26T21:41:58.151Z,88.24
2019-02-26T21:44:26.775Z,88.41
2019-02-26T21:46:56.114Z,88.20
2019-02-26T21:49:25.719Z,87.88
2019-02-26T21:51:55.205Z,87.46
2019-02-26T21:54:24.750Z,87.48
2019-02-26T21:56:54.236Z,87.57
2019-02-26T21:59:23.118Z,87.68
2019-02-26T22:01:52.304Z,87.87
2019-02-26T22:04:21.078Z,87.81
2019-02-26T22:06:49.972Z,87.71
2019-02-26T22:09:18.852Z,88.99
2019-02-26T22:11:50.395Z,89.90
2019-02-26T22:14:18.398Z,90.29
2019-02-26T22:16:48.964Z,89.84
2019-02-26T22:19:20.229Z,90.10
2019-02-26T22:21:52.115Z,90.52
2019-02-26T22:24:20.878Z,90.50
2019-02-26T22:26:49.763Z,91.17
2019-02-26T22:29:18.664Z,89.25
2019-02-26T22:31:47.559Z,88.89
2019-02-26T22:34:16.759Z,89.87
2019-02-26T22:36:47.101Z,90.25
2019-02-26T22:39:16.345Z,89.67
2019-02-26T22:41:45.236Z,90.01
2019-02-26T22:44:14.106Z,89.69
2019-02-26T22:46:42.977Z,90.61
2019-02-26T22:49:11.879Z,91.13
2019-02-26T22:51:40.880Z,91.08
2019-02-26T22:54:10.383Z,90.51
2019-02-26T22:56:39.335Z,90.42
2019-02-26T22:59:08.522Z,90.33
2019-02-26T23:01:39.335Z,90.38
2019-02-26T23:04:08.412Z,90.73
2019-02-26T23:06:37.265Z,90.86
2019-02-26T23:09:08.163Z,90.36
2019-02-26T23:11:37.390Z,90.70
2019-02-26T23:14:07.212Z,91.28
2019-02-26T23:16:36.342Z,90.58
2019-02-26T23:19:05.277Z,89.86
2019-02-26T23:21:34.404Z,90.03
2019-02-26T23:24:03.439Z,90.69
2019-02-26T23:26:32.607Z,91.51
2019-02-26T23:29:01.509Z,91.84
2019-02-26T23:31:32.667Z,91.75
2019-02-26T23:34:01.686Z,91.78
2019-02-26T23:36:30.717Z,91.27
2019-02-26T23:38:59.621Z,91.17
2019-02-26T23:41:30.816Z,91.25
2019-02-26T23:43:59.165Z,91.59
2019-02-26T23:46:29.744Z,91.36
2019-02-26T23:48:58.679Z,91.73
2019-02-26T23:51:27.555Z,91.52
2019-02-26T23:53:56.417Z,91.96
2019-02-26T23:56:25.311Z,92.24
2019-02-26T23:58:54.199Z,92.08
